Aviation Digital Data Service (ADDS)

Output produced by METARs form (1739 UTC 16 June 2019)
found at http://www.aviationweather.gov/metar/data/
 
Forecast for: OITT (TABRIZ(IRAN-AB/C, IR)
Text: TAF OITT 161110Z 1612/1718 29008KT 9999 FEW035 SCT40
Forecast period: 1200 UTC 16 June 2019 to 1800 UTC 17 June 2019
Forecast type: FROM: standard forecast or significant change
Winds: from the WNW (290 degrees) at 9 MPH (8 knots; 4.1 m/s)
Visibility: 6 or more miles 10+ km)
Ceiling: at least 12,000 feet AGL
Clouds: few clouds at 3500 feet AGL
Weather: no significant weather forecast for this period
Text: TEMPO 1612/1616 TS FEW035CB SCT040
Forecast period: 1200 to 1600 UTC 16 June 2019
Forecast type: TEMPORARY: The following changes expected for less than half the time period
Visibility: missing
Ceiling: at least 12,000 feet AGL
Clouds: few clouds at 3500 feet AGL
scattered clouds at 4000 feet AGL
Weather: TS  (thunderstorm)
Text: TEMPO 1706/1714 28018KT 7000 TS/SHRA FEW030CB SCT035 SCT100
Forecast period: 0600 to 1400 UTC 17 June 2019
Forecast type: TEMPORARY: The following changes expected for less than half the time period
Winds: from the W (280 degrees) at 21 MPH (18 knots; 9.3 m/s)
Visibility: 4 miles (7 km)
Ceiling: at least 12,000 feet AGL
Clouds: few clouds at 3000 feet AGL
scattered clouds at 3500 feet AGL
scattered clouds at 10000 feet AGL
Weather: SHRA TS  (rain showers, thunderstorm)